Allen's Hourly Summary for Saturday, July 7, 2018
Hour Temp
(f)
RH
(%)
Solar Rad.
(MJ/m2)
Rainfall
(in)
Wind
(mph)
7/7/2018 12:00 AM 76 77 0 0 1.25
7/7/2018 1:00 AM 75 79 0 0 1.43
7/7/2018 2:00 AM 74 79 0 0 1.72
7/7/2018 3:00 AM 73 83 0 0 1.15
7/7/2018 4:00 AM 72 87 0 0 1.1
7/7/2018 5:00 AM 71 88 0 0 0.63
7/7/2018 6:00 AM 71 88 0 0 0.95
7/7/2018 7:00 AM 71 87 0.05 0 1.39
7/7/2018 8:00 AM 73 76 0.52 0 1.9
7/7/2018 9:00 AM 76 71 1.18 0 3.27
7/7/2018 10:00 AM 78 66 1.88 0 3.19
7/7/2018 11:00 AM 81 60 2.46 0 2.93
7/7/2018 12:00 PM 84 56 2.96 0 3.01
7/7/2018 1:00 PM 87 50 3.09 0 2.85
7/7/2018 2:00 PM 89 45 3.1 0 3.02
7/7/2018 3:00 PM 90 41 2.8 0 3.12
7/7/2018 4:00 PM 91 36 2.77 0 3.38
7/7/2018 5:00 PM 92 35 2.56 0 3.9
7/7/2018 6:00 PM 89 36 1.32 0 5.55
7/7/2018 7:00 PM 89 40 1.15 0 4.15
7/7/2018 8:00 PM 88 42 0.24 0 3.9
7/7/2018 9:00 PM 86 45 0.03 0 2.68
7/7/2018 10:00 PM 83 50 0 0 4.1
7/7/2018 11:00 PM 81 58 0 0 1.66
Data Summary 80 61 26.11 0.00 2.59